| time (UTC) | temp C | wind direction | speed KPH | gust KPH | rain 1hr cm | rain 24hr cm | rain mn cm | humidity % | barometer mb |
| 20260906021839 | 11 | 240 | 9.7 | 0.0 | 0.00 | 0.00 | 0.00 | 94 | 1020.0 |
| 20260906020334 | 11 | 240 | 9.7 | 0.0 | 0.00 | 0.00 | 0.00 | 94 | 1020.0 |
| 20260906014834 | 12 | 240 | 8.0 | 0.0 | 0.00 | 0.00 | 0.00 | 88 | 1020.0 |
| 20260906013451 | 12 | 240 | 8.0 | 0.0 | 0.00 | 0.00 | 0.00 | 88 | 1020.0 |
| 20260906011832 | 12 | 220 | 8.0 | 0.0 | 0.00 | 0.00 | 0.00 | 94 | 1019.0 |
| 20260906010332 | 12 | 220 | 8.0 | 0.0 | 0.00 | 0.00 | 0.00 | 94 | 1019.0 |
| 20260906004951 | 12 | 230 | 9.7 | 0.0 | 0.00 | 0.00 | 0.00 | 88 | 1019.0 |
| 20260906003501 | 12 | 230 | 9.7 | 0.0 | 0.00 | 0.00 | 0.00 | 88 | 1019.0 |
| 20260906001951 | 12 | 210 | 4.8 | 0.0 | 0.00 | 0.00 | 0.00 | 88 | 1019.0 |
| 20260906000440 | 12 | 210 | 4.8 | 0.0 | 0.00 | 0.00 | 0.00 | 88 | 1019.0 |
| 20260905233332 | 12 | 220 | 8.0 | 0.0 | 0.00 | 0.00 | 0.00 | 94 | 1019.0 |
| 20260905231951 | 12 | 200 | 3.2 | 0.0 | 0.00 | 0.00 | 0.00 | 88 | 1019.0 |
| 20260905230404 | 12 | 200 | 3.2 | 0.0 | 0.00 | 0.00 | 0.00 | 88 | 1019.0 |
| 20260905224951 | 12 | 190 | 9.7 | 0.0 | 0.00 | 0.00 | 0.00 | 88 | 1019.0 |
| 20260905223346 | 12 | 190 | 9.7 | 0.0 | 0.00 | 0.00 | 0.00 | 88 | 1019.0 |
| 20260905221936 | 13 | 200 | 9.7 | 0.0 | 0.00 | 0.00 | 0.00 | 82 | 1019.0 |
| 20260905220451 | 13 | 200 | 9.7 | 0.0 | 0.00 | 0.00 | 0.00 | 82 | 1019.0 |
| 20260905214950 | 12 | 200 | 9.7 | 0.0 | 0.00 | 0.00 | 0.00 | 88 | 1019.0 |
| 20260905213333 | 12 | 200 | 9.7 | 0.0 | 0.00 | 0.00 | 0.00 | 88 | 1019.0 |
| 20260905211832 | 13 | 200 | 9.7 | 0.0 | 0.00 | 0.00 | 0.00 | 82 | 1018.0 |
| 20260905210332 | 13 | 200 | 9.7 | 0.0 | 0.00 | 0.00 | 0.00 | 82 | 1018.0 |
| 20260905204843 | 13 | 200 | 9.7 | 0.0 | 0.00 | 0.00 | 0.00 | 82 | 1018.0 |
| 20260905203332 | 13 | 200 | 9.7 | 0.0 | 0.00 | 0.00 | 0.00 | 82 | 1018.0 |
| 20260905201832 | 15 | 220 | 8.0 | 0.0 | 0.00 | 0.00 | 0.00 | 77 | 1018.0 |
| 20260905200451 | 15 | 220 | 8.0 | 0.0 | 0.00 | 0.00 | 0.00 | 77 | 1018.0 |
| 20260905194942 | 15 | 240 | 9.7 | 0.0 | 0.00 | 0.00 | 0.00 | 77 | 1018.0 |
| 20260905193333 | 15 | 240 | 9.7 | 0.0 | 0.00 | 0.00 | 0.00 | 77 | 1018.0 |
| 20260905191901 | 15 | 240 | 9.7 | 0.0 | 0.00 | 0.00 | 0.00 | 77 | 1018.0 |
| 20260905190333 | 15 | 240 | 9.7 | 0.0 | 0.00 | 0.00 | 0.00 | 77 | 1018.0 |
| 20260905184830 | 17 | 0 | 0.0 | 0.0 | 0.00 | 0.00 | 0.00 | 73 | 1017.0 |
| 20260905183337 | 17 | 0 | 0.0 | 0.0 | 0.00 | 0.00 | 0.00 | 73 | 1017.0 |
| 20260905181829 | 17 | 110 | 3.2 | 0.0 | 0.00 | 0.00 | 0.00 | 68 | 1017.0 |
| 20260905180329 | 17 | 110 | 3.2 | 0.0 | 0.00 | 0.00 | 0.00 | 68 | 1017.0 |
| 20260905174829 | 17 | 90 | 4.8 | 0.0 | 0.00 | 0.00 | 0.00 | 68 | 1017.0 |
| 20260905173332 | 17 | 90 | 4.8 | 0.0 | 0.00 | 0.00 | 0.00 | 68 | 1017.0 |
| 20260905171840 | 18 | 60 | 4.8 | 0.0 | 0.00 | 0.00 | 0.00 | 64 | 1017.0 |
| 20260905170333 | 18 | 60 | 4.8 | 0.0 | 0.00 | 0.00 | 0.00 | 64 | 1017.0 |
| 20260905164832 | 21 | 40 | 8.0 | 0.0 | 0.00 | 0.00 | 0.00 | 57 | 1017.0 |
| 20260905163334 | 21 | 40 | 8.0 | 0.0 | 0.00 | 0.00 | 0.00 | 57 | 1017.0 |
| 20260905161830 | 21 | 50 | 11.3 | 0.0 | 0.00 | 0.00 | 0.00 | 57 | 1016.0 |
| 20260905160333 | 21 | 50 | 11.3 | 0.0 | 0.00 | 0.00 | 0.00 | 57 | 1016.0 |
| 20260905154846 | 21 | 20 | 14.5 | 0.0 | 0.00 | 0.00 | 0.00 | 57 | 1016.0 |
| 20260905153332 | 21 | 20 | 14.5 | 0.0 | 0.00 | 0.00 | 0.00 | 57 | 1016.0 |
| 20260905151833 | 21 | 360 | 17.7 | 0.0 | 0.00 | 0.00 | 0.00 | 60 | 1017.0 |
| 20260905150333 | 21 | 360 | 17.7 | 0.0 | 0.00 | 0.00 | 0.00 | 60 | 1017.0 |
| 20260905144829 | 21 | 350 | 20.9 | 0.0 | 0.00 | 0.00 | 0.00 | 64 | 1017.0 |
| 20260905143332 | 21 | 350 | 20.9 | 0.0 | 0.00 | 0.00 | 0.00 | 64 | 1017.0 |
| 20260905141830 | 22 | 10 | 11.3 | 0.0 | 0.00 | 0.00 | 0.00 | 50 | 1016.0 |
| 20260905140329 | 22 | 10 | 11.3 | 0.0 | 0.00 | 0.00 | 0.00 | 50 | 1016.0 |
| 20260905134948 | 22 | 50 | 11.3 | 0.0 | 0.00 | 0.00 | 0.00 | 50 | 1016.0 |
| 20260905133333 | 22 | 50 | 11.3 | 0.0 | 0.00 | 0.00 | 0.00 | 50 | 1016.0 |
| 20260905131835 | 23 | 110 | 8.0 | 0.0 | 0.00 | 0.00 | 0.00 | 47 | 1015.0 |
| 20260905130354 | 23 | 110 | 8.0 | 0.0 | 0.00 | 0.00 | 0.00 | 47 | 1015.0 |
| 20260905124830 | 23 | 40 | 8.0 | 0.0 | 0.00 | 0.00 | 0.00 | 47 | 1016.0 |
| 20260905123333 | 23 | 40 | 8.0 | 0.0 | 0.00 | 0.00 | 0.00 | 47 | 1016.0 |
| 20260905121900 | 25 | 10 | 14.5 | 0.0 | 0.00 | 0.00 | 0.00 | 44 | 1016.0 |
| 20260905120333 | 25 | 10 | 14.5 | 0.0 | 0.00 | 0.00 | 0.00 | 44 | 1016.0 |
| 20260905114833 | 23 | 350 | 22.5 | 0.0 | 0.00 | 0.00 | 0.00 | 47 | 1017.0 |
| 20260905113332 | 23 | 350 | 22.5 | 0.0 | 0.00 | 0.00 | 0.00 | 47 | 1017.0 |
| 20260905111851 | 23 | 350 | 16.1 | 0.0 | 0.00 | 0.00 | 0.00 | 50 | 1017.0 |
| 20260905110332 | 23 | 350 | 16.1 | 0.0 | 0.00 | 0.00 | 0.00 | 50 | 1017.0 |
| 20260905104833 | 23 | 330 | 17.7 | 0.0 | 0.00 | 0.00 | 0.00 | 50 | 1016.0 |
| 20260905103332 | 23 | 330 | 17.7 | 0.0 | 0.00 | 0.00 | 0.00 | 50 | 1016.0 |
| 20260905101832 | 23 | 320 | 20.9 | 0.0 | 0.00 | 0.00 | 0.00 | 54 | 1016.0 |
| 20260905100333 | 23 | 320 | 20.9 | 0.0 | 0.00 | 0.00 | 0.00 | 54 | 1016.0 |
| 20260905094951 | 25 | 310 | 25.7 | 0.0 | 0.00 | 0.00 | 0.00 | 44 | 1016.0 |
| 20260905093332 | 25 | 310 | 25.7 | 0.0 | 0.00 | 0.00 | 0.00 | 44 | 1016.0 |
| 20260905091832 | 27 | 320 | 25.7 | 0.0 | 0.00 | 0.00 | 0.00 | 39 | 1015.0 |
| 20260905090332 | 27 | 320 | 25.7 | 0.0 | 0.00 | 0.00 | 0.00 | 39 | 1015.0 |
| 20260905084832 | 30 | 280 | 20.9 | 0.0 | 0.00 | 0.00 | 0.00 | 35 | 1014.0 |
| 20260905083332 | 30 | 280 | 20.9 | 0.0 | 0.00 | 0.00 | 0.00 | 35 | 1014.0 |
| 20260905081832 | 28 | 280 | 25.7 | 0.0 | 0.00 | 0.00 | 0.00 | 35 | 1014.0 |
| 20260905080333 | 28 | 280 | 25.7 | 0.0 | 0.00 | 0.00 | 0.00 | 35 | 1014.0 |
| 20260905074832 | 27 | 270 | 24.1 | 0.0 | 0.00 | 0.00 | 0.00 | 37 | 1014.0 |
| 20260905073341 | 27 | 270 | 24.1 | 0.0 | 0.00 | 0.00 | 0.00 | 37 | 1014.0 |
| 20260905071833 | 27 | 270 | 22.5 | 0.0 | 0.00 | 0.00 | 0.00 | 39 | 1014.0 |
| 20260905070332 | 27 | 270 | 22.5 | 0.0 | 0.00 | 0.00 | 0.00 | 39 | 1014.0 |
| 20260905064833 | 27 | 230 | 11.3 | 0.0 | 0.00 | 0.00 | 0.00 | 39 | 1013.0 |
| 20260905063333 | 27 | 230 | 11.3 | 0.0 | 0.00 | 0.00 | 0.00 | 39 | 1013.0 |
| 20260905061833 | 25 | 200 | 9.7 | 0.0 | 0.00 | 0.00 | 0.00 | 44 | 1014.0 |
| 20260905060333 | 25 | 200 | 9.7 | 0.0 | 0.00 | 0.00 | 0.00 | 44 | 1014.0 |
| 20260905054833 | 22 | 230 | 4.8 | 0.0 | 0.00 | 0.00 | 0.00 | 50 | 1014.0 |
| 20260905053333 | 22 | 230 | 4.8 | 0.0 | 0.00 | 0.00 | 0.00 | 50 | 1014.0 |
| 20260905051832 | 21 | 180 | 11.3 | 0.0 | 0.00 | 0.00 | 0.00 | 57 | 1014.0 |
| 20260905050333 | 21 | 180 | 11.3 | 0.0 | 0.00 | 0.00 | 0.00 | 57 | 1014.0 |
| 20260905044833 | 20 | 1.6 | 0.0 | 0.00 | 0.00 | 0.00 | 60 | 1014.0 | |
| 20260905043332 | 20 | 1.6 | 0.0 | 0.00 | 0.00 | 0.00 | 60 | 1014.0 | |
| 20260905041832 | 18 | 200 | 12.9 | 0.0 | 0.00 | 0.00 | 0.00 | 64 | 1013.0 |
| 20260905040332 | 18 | 200 | 12.9 | 0.0 | 0.00 | 0.00 | 0.00 | 64 | 1013.0 |
| 20260905034833 | 17 | 190 | 12.9 | 0.0 | 0.00 | 0.00 | 0.00 | 64 | 1013.0 |
| 20260905033332 | 17 | 190 | 12.9 | 0.0 | 0.00 | 0.00 | 0.00 | 64 | 1013.0 |
| 20260905031833 | 17 | 190 | 11.3 | 0.0 | 0.00 | 0.00 | 0.00 | 64 | 1013.0 |
| 20260905030332 | 17 | 190 | 11.3 | 0.0 | 0.00 | 0.00 | 0.00 | 64 | 1013.0 |
| 20260905024845 | 18 | 200 | 11.3 | 0.0 | 0.00 | 0.00 | 0.00 | 64 | 1013.0 |
| 20260905023333 | 18 | 200 | 11.3 | 0.0 | 0.00 | 0.00 | 0.00 | 64 | 1013.0 |